Blythe

About
Name: Blythe
Identifier:  BLH/KBLH
Local Time:  18. Sep 11:16 PDT
Location
Statistics
Flights per Day:
0 flights
Distance: 237km (147mi)
Flights delayed:
66% (0 flights per day delayed)
Delay Average: 36 minutes
Current Weather
 32 C (Humidity: 14%)
  5kt (9km/h / 5mph) from 210°
  16km (10 mi.)
 
 METAR KBLH 181752Z AUTO 21005KT 10SM CLR 32/02 A2985 RMK AO2 SLP102 T03170017 10317 20194 50004

Current Delays

Departures
N/A
Arrivals
N/A

Destinations

Top Destinations
Airport Flights
per week
Seats
per week
  Ontario (ONT) 0 - 0 0

Airlines & Planes

Top Airlines
Airline Flights
per Day
Seats
per Day
  Ameriflight 0 -
Top Plane Types
Model Flights Seats
Beech C-99 Airliner 0.1/day - 0